Time;durP1;ratioP1;P1;durP2;ratioP2;P2;SDS_P1;SDS_P2;PMS_P1;PMS_P2;Temp;Humidity;BMP_temperature;BMP_pressure;BME280_temperature;BME280_humidity;BME280_pressure;Samples;Min_cycle;Max_cycle;Signal;HPM_P1;HPM_P2
2021/08/18 00:02:16;;;;;;;10.52;9.43;;;;;;;14.82;98.24;101627.31;5115260;28;20077;-35
2021/08/18 00:04:41;;;;;;;11.20;9.27;;;;;;;14.74;98.80;101610.53;5114472;28;20383;-35
2021/08/18 00:07:06;;;;;;;11.13;10.03;;;;;;;14.80;98.60;101632.19;5115017;28;20488;-36
2021/08/18 00:09:31;;;;;;;10.37;9.07;;;;;;;14.84;98.44;101624.38;5114668;28;20741;-36
2021/08/18 00:11:57;;;;;;;10.73;9.43;;;;;;;14.79;98.83;101627.00;5115042;28;20593;-36
2021/08/18 00:14:22;;;;;;;12.93;9.13;;;;;;;14.71;99.22;101602.84;5114571;28;20019;-35
2021/08/18 00:16:48;;;;;;;10.77;8.73;;;;;;;14.73;98.87;101609.69;5114317;28;20031;-35
2021/08/18 00:19:13;;;;;;;11.95;8.98;;;;;;;14.73;98.85;101606.97;5114726;28;20372;-35
2021/08/18 00:21:39;;;;;;;11.40;9.15;;;;;;;14.75;98.84;101613.03;5115153;28;20031;-35
2021/08/18 00:24:04;;;;;;;9.52;8.60;;;;;;;14.84;98.77;101622.47;5114027;28;20039;-35
2021/08/18 00:26:30;;;;;;;9.90;8.98;;;;;;;14.85;98.85;101620.56;5114772;28;20019;-35
2021/08/18 00:28:56;;;;;;;10.55;9.07;;;;;;;14.73;98.89;101606.16;5114357;28;20060;-35
2021/08/18 00:31:22;;;;;;;9.75;8.75;;;;;;;14.83;98.92;101620.78;5114338;28;20076;-35
2021/08/18 00:33:48;;;;;;;9.82;8.63;;;;;;;14.67;99.10;101595.16;5112737;28;20036;-35
2021/08/18 00:36:14;;;;;;;9.32;8.38;;;;;;;14.77;99.19;101615.50;5114149;28;20396;-35
2021/08/18 00:38:39;;;;;;;9.90;8.85;;;;;;;14.85;99.01;101618.69;5114048;28;20031;-35
2021/08/18 00:41:05;;;;;;;13.20;9.27;;;;;;;14.85;99.05;101624.13;5114274;28;20076;-35
2021/08/18 00:43:30;;;;;;;9.75;8.80;;;;;;;14.79;99.30;101603.31;5114004;28;20019;-35
2021/08/18 00:45:55;;;;;;;11.20;8.60;;;;;;;14.87;98.91;101615.69;5114200;28;20039;-35
2021/08/18 00:48:21;;;;;;;12.53;8.30;;;;;;;14.89;99.35;101621.75;5114142;28;20417;-35
2021/08/18 00:50:46;;;;;;;11.63;8.27;;;;;;;14.86;99.09;101622.22;5114012;28;20027;-35
2021/08/18 00:53:13;;;;;;;9.87;8.70;;;;;;;14.86;99.57;101623.03;5113550;28;20297;-35
2021/08/18 00:55:41;;;;;;;11.25;8.90;;;;;;;14.87;99.53;101621.16;5112764;28;20261;-35
2021/08/18 00:58:10;;;;;;;9.57;8.68;;;;;;;14.87;99.18;101626.59;5113758;27;20420;-35
2021/08/18 01:00:36;;;;;;;10.40;9.18;;;;;;;14.84;99.63;101617.03;5113734;28;20106;-35
2021/08/18 01:03:01;;;;;;;9.98;7.60;;;;;;;14.86;99.47;101614.06;5114189;28;20408;-35
2021/08/18 01:05:29;;;;;;;9.27;7.85;;;;;;;14.87;99.22;101615.69;5114224;28;20046;-35
2021/08/18 01:07:57;;;;;;;8.68;7.78;;;;;;;14.85;99.16;101612.41;5113495;28;20417;-36
2021/08/18 01:10:33;;;;;;;8.43;7.55;;;;;;;14.87;99.50;101615.69;5113559;28;20118;-35
2021/08/18 01:12:58;;;;;;;10.70;7.95;;;;;;;14.82;99.29;101612.88;5113593;28;20030;-35
2021/08/18 01:15:26;;;;;;;10.02;7.28;;;;;;;14.90;99.17;101620.69;5113805;28;20452;-35
2021/08/18 01:17:54;;;;;;;13.93;7.15;;;;;;;14.88;99.26;101628.25;5113493;28;20059;-35
2021/08/18 01:20:29;;;;;;;8.43;7.13;;;;;;;14.85;99.47;101621.41;5113897;28;20023;-35
2021/08/18 01:22:56;;;;;;;9.02;7.10;;;;;;;14.77;99.86;101613.59;5113849;28;20020;-35
2021/08/18 01:25:22;;;;;;;9.13;7.60;;;;;;;14.86;99.75;101616.78;5112154;28;20422;-35
2021/08/18 01:27:51;;;;;;;13.57;7.20;;;;;;;14.87;99.51;101623.88;5113018;28;20024;-35
2021/08/18 01:30:19;;;;;;;7.75;6.82;;;;;;;14.87;99.55;101624.69;5114018;28;20024;-35
2021/08/18 01:32:46;;;;;;;7.80;6.70;;;;;;;14.88;99.55;101620.06;5113156;28;20023;-35
2021/08/18 01:35:26;;;;;;;9.52;6.55;;;;;;;14.90;99.81;101620.69;5113862;28;20423;-35
2021/08/18 01:37:52;;;;;;;11.35;6.53;;;;;;;14.89;99.49;101622.59;5113649;28;20031;-35
2021/08/18 01:40:22;;;;;;;9.02;6.78;;;;;;;14.87;99.52;101624.69;5112935;28;20016;-36
2021/08/18 01:42:48;;;;;;;8.98;6.88;;;;;;;14.65;99.55;101591.03;5113545;28;20031;-35
2021/08/18 01:45:27;;;;;;;7.82;7.05;;;;;;;14.88;99.57;101628.25;5113179;28;20456;-35
2021/08/18 01:47:54;;;;;;;11.95;6.10;;;;;;;14.82;99.26;101612.88;5113495;28;20020;-35
2021/08/18 01:50:21;;;;;;;9.63;6.72;;;;;;;14.86;99.59;101627.66;5113212;28;20043;-35
2021/08/18 01:52:56;;;;;;;8.15;6.68;;;;;;;14.86;100.00;101622.22;5113422;28;20027;-36
2021/08/18 01:55:25;;;;;;;9.38;6.90;;;;;;;14.87;99.69;101626.59;5112884;28;20510;-35
2021/08/18 01:57:51;;;;;;;11.18;7.15;;;;;;;14.78;99.61;101607.06;5112865;28;20428;-36
2021/08/18 02:00:17;;;;;;;8.57;6.20;;;;;;;14.89;99.92;101632.66;5112813;28;20423;-36
2021/08/18 02:02:44;;;;;;;8.85;6.95;;;;;;;14.82;99.97;101615.59;5113384;28;20020;-35
2021/08/18 02:05:10;;;;;;;14.43;7.28;;;;;;;14.87;99.84;101629.31;5112924;28;20028;-35
2021/08/18 02:07:36;;;;;;;9.00;6.85;;;;;;;14.88;100.00;101628.25;5116937;28;20099;-35
2021/08/18 02:10:06;;;;;;;8.52;7.18;;;;;;;14.88;99.92;101622.78;5117351;28;20032;-35
2021/08/18 02:12:31;;;;;;;7.55;6.80;;;;;;;14.88;99.77;101620.06;5117221;28;20076;-33
2021/08/18 02:14:57;;;;;;;8.38;6.80;;;;;;;14.90;99.65;101624.22;5116842;28;20024;-34
2021/08/18 02:17:22;;;;;;;9.77;7.40;;;;;;;14.86;99.65;101614.88;5117160;28;20019;-35
2021/08/18 02:19:47;;;;;;;7.97;6.63;;;;;;;14.90;99.86;101616.06;5117255;28;20422;-36
2021/08/18 02:22:13;;;;;;;9.32;7.13;;;;;;;14.89;99.91;101617.13;5116891;28;20023;-35
2021/08/18 02:24:38;;;;;;;9.98;7.35;;;;;;;14.92;100.00;101616.63;5116804;28;20023;-35
2021/08/18 02:27:04;;;;;;;9.97;7.50;;;;;;;14.93;100.00;101615.59;5116772;28;20110;-36
2021/08/18 02:29:29;;;;;;;11.57;7.85;;;;;;;14.92;99.62;101615.81;5116310;27;20296;-36
2021/08/18 02:31:55;;;;;;;10.38;7.80;;;;;;;14.89;99.76;101610.88;5117615;28;20023;-35
2021/08/18 02:34:20;;;;;;;9.97;7.10;;;;;;;14.83;99.90;101609.91;5117016;28;20050;-35
2021/08/18 02:36:45;;;;;;;8.67;7.47;;;;;;;14.93;100.00;101620.19;5116629;28;20249;-35
2021/08/18 02:39:11;;;;;;;10.57;7.75;;;;;;;14.94;99.42;101619.97;5116950;28;20024;-35
2021/08/18 02:41:36;;;;;;;12.80;7.85;;;;;;;14.85;99.59;101602.34;5116876;28;20068;-35
2021/08/18 02:44:02;;;;;;;11.38;7.13;;;;;;;14.97;99.61;101615.91;5116446;27;20035;-35
2021/08/18 02:46:27;;;;;;;9.38;7.75;;;;;;;14.79;100.00;101584.25;5116064;28;20020;-35
2021/08/18 02:48:52;;;;;;;10.10;8.00;;;;;;;14.86;99.85;101586.81;5116378;28;20031;-35
2021/08/18 02:51:18;;;;;;;9.70;8.07;;;;;;;14.86;99.92;101584.94;5116462;28;20661;-35
2021/08/18 02:53:44;;;;;;;9.95;7.28;;;;;;;14.92;99.72;101603.00;5115945;28;20031;-35
2021/08/18 02:56:09;;;;;;;10.50;7.60;;;;;;;14.92;99.88;101610.34;5116532;28;20020;-35
2021/08/18 02:58:34;;;;;;;10.05;7.45;;;;;;;14.86;99.97;101593.09;5115855;28;20107;-35
2021/08/18 03:01:00;;;;;;;10.07;7.47;;;;;;;14.89;100.00;101592.63;5116221;28;20542;-35
2021/08/18 03:03:25;;;;;;;10.30;7.57;;;;;;;14.88;100.00;101588.25;5116468;28;20368;-35
2021/08/18 03:05:51;;;;;;;10.20;7.47;;;;;;;14.86;100.00;101584.94;5115676;28;20106;-35
2021/08/18 03:08:16;;;;;;;13.05;7.57;;;;;;;14.87;100.00;101602.91;5115835;28;20036;-35
2021/08/18 03:10:41;;;;;;;10.97;7.83;;;;;;;14.90;100.00;101605.16;5116221;28;20027;-36
2021/08/18 03:13:07;;;;;;;11.57;7.70;;;;;;;14.90;100.00;101609.78;5115780;28;20358;-35
2021/08/18 03:15:32;;;;;;;9.68;7.05;;;;;;;14.93;99.94;101612.00;5116551;28;20027;-35
2021/08/18 03:17:59;;;;;;;9.48;7.00;;;;;;;14.91;100.00;101606.00;5114899;28;20027;-35
2021/08/18 03:20:24;;;;;;;9.95;7.30;;;;;;;14.90;100.00;101610.63;5115928;28;20020;-35
2021/08/18 03:22:49;;;;;;;9.80;7.30;;;;;;;14.90;100.00;101604.34;5115732;28;20022;-35
2021/08/18 03:25:15;;;;;;;12.45;7.93;;;;;;;14.91;100.00;101612.25;5116393;28;20027;-35
2021/08/18 03:27:41;;;;;;;10.40;7.60;;;;;;;14.91;100.00;101606.00;5115797;28;20118;-35
2021/08/18 03:30:07;;;;;;;;;;;;;;;14.97;99.48;101609.63;5116111;28;20265;-35
2021/08/18 03:32:33;;;;;;;9.80;7.53;;;;;;;14.86;99.69;101608.59;5115497;28;19914;-36
2021/08/18 03:34:58;;;;;;;8.38;7.28;;;;;;;14.91;100.00;101622.34;5115073;28;20106;-35
2021/08/18 03:37:23;;;;;;;8.23;7.15;;;;;;;14.89;100.00;101608.13;5116150;28;20027;-35
2021/08/18 03:39:49;;;;;;;12.45;7.40;;;;;;;14.91;99.82;101616.88;5115035;28;20143;-36
2021/08/18 03:42:15;;;;;;;10.60;7.50;;;;;;;14.91;100.00;101616.88;5115853;28;20027;-35
2021/08/18 03:44:40;;;;;;;8.40;7.50;;;;;;;14.88;99.98;101609.19;5113530;28;20476;-35
2021/08/18 03:47:06;;;;;;;8.40;7.53;;;;;;;14.85;100.00;101606.97;5115547;28;20016;-35
2021/08/18 03:49:31;;;;;;;12.30;7.60;;;;;;;14.78;100.00;101593.47;5115019;28;20027;-35
2021/08/18 03:51:56;;;;;;;8.35;7.47;;;;;;;14.90;100.00;101610.63;5115236;28;20451;-35
2021/08/18 03:54:22;;;;;;;8.83;7.57;;;;;;;14.89;100.00;101613.59;5115474;28;20069;-35
2021/08/18 03:56:47;;;;;;;8.00;6.60;;;;;;;14.90;100.00;101612.50;5115108;28;20242;-35
2021/08/18 03:59:12;;;;;;;14.07;7.13;;;;;;;14.81;100.00;101589.44;5115018;28;20367;-35
2021/08/18 04:01:38;;;;;;;8.20;7.40;;;;;;;14.90;100.00;101609.78;5115718;28;20030;-35
2021/08/18 04:04:03;;;;;;;9.85;7.18;;;;;;;14.80;100.00;101599.50;5114875;28;20023;-36
2021/08/18 04:06:29;;;;;;;8.90;7.57;;;;;;;14.79;100.00;101589.69;5115211;28;20335;-35
2021/08/18 04:08:56;;;;;;;9.73;7.40;;;;;;;14.88;100.00;101606.47;5114434;28;20024;-35
2021/08/18 04:11:22;;;;;;;7.95;7.15;;;;;;;14.80;100.00;101583.19;5115087;28;20362;-36
2021/08/18 04:13:47;;;;;;;8.30;7.15;;;;;;;14.88;100.00;101601.00;5114834;28;20016;-35
2021/08/18 04:16:13;;;;;;;8.50;7.57;;;;;;;14.90;100.00;101607.06;5114962;28;20031;-35
2021/08/18 04:18:38;;;;;;;8.63;7.35;;;;;;;14.83;100.00;101598.19;5114852;28;20029;-35
2021/08/18 04:21:04;;;;;;;11.98;7.32;;;;;;;14.84;100.00;101603.41;5114863;28;20047;-35
2021/08/18 04:23:29;;;;;;;10.60;7.20;;;;;;;14.83;100.00;101606.34;5114519;28;20115;-35
2021/08/18 04:25:54;;;;;;;12.93;8.50;;;;;;;14.90;100.00;101613.34;5114508;28;20366;-36
2021/08/18 04:28:20;;;;;;;10.32;7.18;;;;;;;14.84;100.00;101605.31;5114236;28;20277;-35
2021/08/18 04:30:45;;;;;;;7.95;6.53;;;;;;;14.91;100.00;101620.44;5114784;28;20027;-35
2021/08/18 04:33:11;;;;;;;9.33;7.53;;;;;;;14.90;100.00;101617.97;5114231;28;20156;-35
2021/08/18 04:35:37;;;;;;;9.90;7.43;;;;;;;14.91;100.00;101620.44;5114408;28;20316;-35
2021/08/18 04:38:03;;;;;;;12.73;7.30;;;;;;;14.92;100.00;101623.97;5114720;28;20062;-35
2021/08/18 04:40:29;;;;;;;12.57;7.40;;;;;;;14.80;100.00;101601.41;5114148;28;20027;-35
2021/08/18 04:42:54;;;;;;;9.48;8.30;;;;;;;14.80;100.00;101604.97;5114087;28;20019;-35
2021/08/18 04:45:20;;;;;;;11.85;7.47;;;;;;;14.88;100.00;101612.75;5114646;28;20411;-35
2021/08/18 04:47:46;;;;;;;9.68;7.45;;;;;;;14.89;100.00;101608.13;5114428;28;20031;-35
2021/08/18 04:50:13;;;;;;;9.27;8.38;;;;;;;14.90;100.00;101620.69;5113652;28;20069;-35
2021/08/18 04:52:38;;;;;;;10.00;7.85;;;;;;;14.90;100.00;101618.78;5113893;28;20496;-35
2021/08/18 04:55:04;;;;;;;9.82;8.02;;;;;;;14.84;100.00;101597.97;5113926;28;20023;-35
2021/08/18 04:57:30;;;;;;;9.82;7.65;;;;;;;14.93;100.00;101609.28;5113884;28;20069;-35
2021/08/18 04:59:55;;;;;;;11.47;8.57;;;;;;;14.93;100.00;101615.59;5113715;28;20016;-35
2021/08/18 05:02:21;;;;;;;11.65;8.52;;;;;;;14.93;100.00;101612.88;5114529;28;20329;-35
2021/08/18 05:04:46;;;;;;;11.52;8.70;;;;;;;14.83;100.00;101596.28;5114082;28;20106;-35
2021/08/18 05:07:12;;;;;;;10.43;8.77;;;;;;;14.90;100.00;101593.44;5114196;28;20054;-35
2021/08/18 05:09:37;;;;;;;9.68;8.60;;;;;;;14.90;100.00;101591.56;5113651;28;20016;-35
2021/08/18 05:12:03;;;;;;;11.23;9.10;;;;;;;15.01;100.00;101605.38;5114041;28;20062;-36
2021/08/18 05:14:28;;;;;;;12.20;9.10;;;;;;;15.00;100.00;101592.81;5113616;28;20027;-35
2021/08/18 05:16:53;;;;;;;11.50;8.90;;;;;;;15.05;100.00;101596.47;5114184;28;20343;-35
2021/08/18 05:19:19;;;;;;;11.57;10.00;;;;;;;15.04;100.00;101591.28;5113654;28;20031;-35
2021/08/18 05:21:45;;;;;;;11.13;9.90;;;;;;;15.08;100.00;101598.72;5113343;28;20027;-35
2021/08/18 05:24:10;;;;;;;13.50;10.52;;;;;;;15.09;100.00;101600.38;5113584;28;20359;-35
2021/08/18 05:26:36;;;;;;;11.13;9.82;;;;;;;15.11;100.00;101600.94;5113568;28;20030;-35
2021/08/18 05:29:02;;;;;;;13.75;10.13;;;;;;;15.12;100.00;101597.13;5113978;28;20115;-35
2021/08/18 05:31:27;;;;;;;16.17;10.93;;;;;;;15.09;100.00;101594.94;5113673;28;20038;-35
2021/08/18 05:33:53;;;;;;;15.13;10.80;;;;;;;15.12;100.00;101596.31;5113615;28;20063;-35
2021/08/18 05:36:18;;;;;;;14.35;11.02;;;;;;;15.12;100.00;101585.41;5113678;28;20273;-35
2021/08/18 05:38:44;;;;;;;12.35;11.02;;;;;;;15.19;100.00;101599.75;5113306;28;20391;-35
2021/08/18 05:41:09;;;;;;;12.30;11.10;;;;;;;15.19;100.00;101608.75;5115795;28;20031;-35
2021/08/18 05:43:35;;;;;;;14.13;11.50;;;;;;;15.21;100.00;101600.31;5117668;28;20106;-35
2021/08/18 05:46:00;;;;;;;13.63;11.35;;;;;;;15.25;100.00;101606.13;5118445;28;20026;-35
2021/08/18 05:48:26;;;;;;;13.48;12.13;;;;;;;15.17;100.00;101588.25;5117465;28;20104;-35
2021/08/18 05:50:51;;;;;;;14.43;12.75;;;;;;;15.26;100.00;101597.69;5117873;28;20026;-35
2021/08/18 05:53:18;;;;;;;15.43;13.50;;;;;;;15.22;100.00;101595.69;5117925;28;20031;-35
2021/08/18 05:55:52;;;;;;;19.52;13.63;;;;;;;15.19;100.00;101591.56;5117863;27;20265;-35
2021/08/18 05:58:18;;;;;;;14.88;13.18;;;;;;;15.31;100.00;101605.13;5117576;28;20055;-35
2021/08/18 06:00:44;;;;;;;14.03;12.57;;;;;;;15.36;100.00;101603.31;5117720;28;20059;-35
2021/08/18 06:03:10;;;;;;;;;;;;;;;15.45;100.00;101607.31;5117683;28;20261;-35
2021/08/18 06:05:38;;;;;;;15.20;11.98;;;;;;;15.44;100.00;101611.09;5116970;28;19911;-35
2021/08/18 06:08:05;;;;;;;17.10;13.82;;;;;;;15.39;100.00;101597.38;5117824;28;20031;-35
2021/08/18 06:10:30;;;;;;;16.73;13.20;;;;;;;15.49;100.00;101613.09;5117982;28;20026;-35
2021/08/18 06:12:56;;;;;;;14.95;13.43;;;;;;;15.54;100.00;101604.19;5117528;28;20016;-35
2021/08/18 06:15:21;;;;;;;19.65;15.10;;;;;;;15.56;100.00;101610.22;5117215;28;20102;-35
2021/08/18 06:17:47;;;;;;;18.27;14.02;;;;;;;15.56;100.00;101604.75;5115655;28;20359;-35
2021/08/18 06:20:16;;;;;;;17.63;14.15;;;;;;;15.59;100.00;101613.28;5117561;28;20071;-35
2021/08/18 06:22:41;;;;;;;17.45;15.63;;;;;;;15.60;100.00;101604.03;5116488;28;20024;-35
2021/08/18 06:25:07;;;;;;;16.42;14.77;;;;;;;15.64;99.65;101613.41;5116983;28;20026;-35
2021/08/18 06:27:33;;;;;;;23.13;15.88;;;;;;;15.65;100.00;101606.88;5117299;28;20111;-35
2021/08/18 06:29:59;;;;;;;18.75;15.27;;;;;;;15.64;99.88;101607.94;5115050;28;20059;-35
2021/08/18 06:32:25;;;;;;;17.90;16.05;;;;;;;15.72;99.96;101605.91;5116588;28;20118;-35
2021/08/18 06:34:53;;;;;;;17.80;15.95;;;;;;;15.79;100.00;101607.38;5116159;28;20123;-35
2021/08/18 06:37:21;;;;;;;21.15;17.65;;;;;;;15.81;99.80;101604.41;5116740;27;20020;-35
2021/08/18 06:39:47;;;;;;;18.42;16.52;;;;;;;15.90;99.60;101608.38;5117227;28;20351;-35
2021/08/18 06:42:13;;;;;;;16.40;14.80;;;;;;;15.93;99.13;101607.88;5116496;28;20075;-36
2021/08/18 06:44:38;;;;;;;20.17;15.57;;;;;;;16.01;99.40;101609.38;5116430;28;20027;-36
2021/08/18 06:47:05;;;;;;;17.95;15.80;;;;;;;15.89;98.35;101579.44;5116547;28;20360;-35
2021/08/18 06:49:30;;;;;;;16.92;15.23;;;;;;;16.10;98.48;101605.13;5116284;27;20032;-35
2021/08/18 06:51:56;;;;;;;19.10;16.73;;;;;;;16.16;98.71;101615.06;5115541;28;20469;-35
2021/08/18 06:54:21;;;;;;;;;;;;;;;16.28;98.48;101617.69;5116749;28;20031;-35
2021/08/18 06:56:46;;;;;;;18.10;16.15;;;;;;;16.14;97.70;101601.66;5116251;28;20019;-36
2021/08/18 06:59:12;;;;;;;;;;;;;;;16.28;98.04;101618.53;5116466;28;20114;-36
2021/08/18 07:01:37;;;;;;;17.55;15.65;;;;;;;16.26;98.27;101620.69;5116654;28;19910;-35
2021/08/18 07:04:05;;;;;;;;;;;;;;;16.38;97.96;101624.13;5116306;28;20035;-36
2021/08/18 07:06:30;;;;;;;20.20;17.25;;;;;;;16.44;98.75;101625.84;5115794;28;19908;-35
2021/08/18 07:08:55;;;;;;;;;;;;;;;16.51;97.92;101614.75;5116126;28;20016;-36
2021/08/18 07:11:21;;;;;;;20.48;16.08;;;;;;;16.45;97.27;101618.50;5116669;27;20075;-35
2021/08/18 07:13:46;;;;;;;;;;;;;;;16.61;97.48;101625.00;5117108;28;20023;-35
2021/08/18 07:16:11;;;;;;;16.17;14.47;;;;;;;16.51;96.76;101606.56;5116005;28;20033;-35
2021/08/18 07:18:36;;;;;;;;;;;;;;;16.71;97.24;101619.69;5116276;28;20027;-35
2021/08/18 07:21:02;;;;;;;16.93;15.20;;;;;;;16.67;96.19;101613.06;5115889;27;19912;-36
2021/08/18 07:23:27;;;;;;;20.75;16.08;;;;;;;16.72;95.66;101621.34;5115731;28;20613;-35
2021/08/18 07:25:53;;;;;;;16.58;14.88;;;;;;;16.77;95.92;101612.41;5115677;28;20038;-36
2021/08/18 07:28:18;;;;;;;18.33;15.68;;;;;;;16.78;95.44;101614.03;5115758;28;20016;-35
2021/08/18 07:30:43;;;;;;;19.83;16.08;;;;;;;16.79;95.47;101611.09;5116002;28;20385;-35
2021/08/18 07:33:09;;;;;;;;;;;;;;;16.94;95.74;101618.63;5115957;28;20048;-35
2021/08/18 07:35:34;;;;;;;16.13;14.43;;;;;;;16.93;94.95;101614.22;5115322;28;19914;-35
2021/08/18 07:37:59;;;;;;;15.75;14.25;;;;;;;16.93;93.87;101614.22;5115623;28;20257;-35
2021/08/18 07:40:25;;;;;;;;;;;;;;;17.04;94.80;101621.50;5115914;28;20027;-35
2021/08/18 07:42:52;;;;;;;16.85;13.88;;;;;;;16.97;93.79;101610.75;5116047;27;20247;-35
2021/08/18 07:45:18;;;;;;;15.80;14.27;;;;;;;17.05;94.26;101614.13;5115363;28;20164;-35
2021/08/18 07:47:45;;;;;;;16.13;14.57;;;;;;;17.10;92.82;101608.72;5115225;28;20023;-35
2021/08/18 07:50:12;;;;;;;15.77;14.10;;;;;;;17.10;92.07;101611.44;5115241;28;20042;-35
2021/08/18 07:52:37;;;;;;;15.55;13.95;;;;;;;17.15;92.71;101609.59;5115434;28;20081;-35
2021/08/18 07:55:05;;;;;;;16.00;14.30;;;;;;;17.19;92.18;101616.19;5115886;28;20346;-35
2021/08/18 07:57:34;;;;;;;14.43;13.07;;;;;;;17.17;91.36;101609.31;5115259;28;20366;-35
2021/08/18 07:59:59;;;;;;;15.88;14.05;;;;;;;17.22;91.58;101609.38;5114726;28;20444;-35
2021/08/18 08:02:24;;;;;;;16.95;13.45;;;;;;;17.20;90.86;101609.66;5115084;28;20038;-36
2021/08/18 08:04:49;;;;;;;;;;;;;;;17.36;91.95;101618.00;5115097;28;20045;-35
2021/08/18 08:07:15;;;;;;;15.07;12.87;;;;;;;17.30;91.19;101616.31;5113710;28;19904;-35
2021/08/18 08:09:40;;;;;;;;;;;;;;;17.40;91.83;101614.50;5115452;28;20015;-35
2021/08/18 08:12:06;;;;;;;13.60;12.10;;;;;;;17.33;90.30;101610.34;5115736;28;19914;-35
2021/08/18 08:14:31;;;;;;;13.60;12.20;;;;;;;17.44;90.76;101623.84;5114833;28;20276;-35
2021/08/18 08:16:56;;;;;;;13.98;12.48;;;;;;;17.47;90.32;101611.53;5115003;28;20353;-36
2021/08/18 08:19:22;;;;;;;13.93;11.43;;;;;;;17.54;89.11;101611.34;5115340;27;20236;-36
2021/08/18 08:21:48;;;;;;;12.80;11.30;;;;;;;17.55;89.16;101594.69;5115399;28;20441;-36
2021/08/18 08:24:13;;;;;;;;;;;;;;;17.82;90.58;101613.03;5115101;28;20462;-36
2021/08/18 08:26:38;;;;;;;11.85;10.65;;;;;;;17.90;88.43;101610.59;5114711;28;19908;-36
2021/08/18 08:29:03;;;;;;;;;;;;;;;18.07;89.27;101609.66;5114980;28;20028;-36
2021/08/18 08:31:29;;;;;;;10.25;9.25;;;;;;;18.06;87.63;101602.53;5115381;28;19915;-36
2021/08/18 08:33:54;;;;;;;;;;;;;;;18.20;89.44;101607.28;5114846;28;20039;-36
2021/08/18 08:36:19;;;;;;;10.43;8.43;;;;;;;18.08;85.20;101595.69;5114213;28;20356;-36
2021/08/18 08:38:45;;;;;;;;;;;;;;;18.37;88.07;101604.38;5115132;28;20076;-36
2021/08/18 08:41:10;;;;;;;8.10;7.30;;;;;;;18.28;83.43;101603.22;5114467;28;19915;-36
2021/08/18 08:43:37;;;;;;;;;;;;;;;18.43;86.60;101610.69;5114723;28;20250;-36
2021/08/18 08:46:06;;;;;;;8.30;6.63;;;;;;;18.37;84.17;101606.28;5114662;28;19955;-36
2021/08/18 08:48:32;;;;;;;8.88;7.97;;;;;;;18.35;84.26;101616.66;5114416;28;20024;-36
2021/08/18 08:50:58;;;;;;;10.25;8.60;;;;;;;18.28;82.68;101611.44;5114573;28;20527;-36
2021/08/18 08:53:24;;;;;;;;;;;;;;;18.39;85.84;101610.41;5114926;28;20106;-36
2021/08/18 08:55:49;;;;;;;8.60;7.57;;;;;;;18.10;84.75;101585.31;5114427;28;19903;-36
2021/08/18 08:58:15;;;;;;;;;;;;;;;18.41;86.35;101613.72;5114597;28;20508;-36
2021/08/18 09:00:40;;;;;;;9.05;7.43;;;;;;;18.25;84.10;101607.31;5114460;28;19903;-36
2021/08/18 09:03:07;;;;;;;;;;;;;;;18.45;85.98;101614.03;5114812;28;20466;-36
2021/08/18 09:05:33;;;;;;;8.40;7.60;;;;;;;18.23;83.75;101598.53;5114368;28;19908;-36
2021/08/18 09:07:59;;;;;;;;;;;;;;;18.42;85.37;101612.63;5114289;28;20520;-36
2021/08/18 09:10:25;;;;;;;7.88;6.95;;;;;;;18.26;84.01;101613.63;5113673;28;19912;-36
2021/08/18 09:12:51;;;;;;;8.48;7.65;;;;;;;18.16;84.95;101610.81;5114678;28;20160;-36
2021/08/18 09:15:20;;;;;;;;;;;;;;;18.36;86.03;101621.09;5113447;28;20061;-36
2021/08/18 09:17:48;;;;;;;12.20;9.43;;;;;;;18.25;84.76;101626.50;5114410;28;19992;-36
2021/08/18 09:20:22;;;;;;;11.80;10.68;;;;;;;18.21;85.80;101605.38;5113736;28;20027;-36
2021/08/18 09:22:54;;;;;;;9.93;8.95;;;;;;;18.27;84.57;101621.56;5114507;28;20096;-36
2021/08/18 09:25:26;;;;;;;10.23;9.32;;;;;;;18.24;84.32;101616.59;5113965;28;20024;-36
2021/08/18 09:27:55;;;;;;;9.85;8.88;;;;;;;18.35;84.18;101614.78;5114379;28;20020;-36
2021/08/18 09:30:27;;;;;;;10.43;8.98;;;;;;;18.42;82.69;101630.97;5113375;28;20352;-36
2021/08/18 09:32:55;;;;;;;7.60;6.90;;;;;;;18.40;80.94;101627.69;5113987;28;20082;-36
2021/08/18 09:35:23;;;;;;;6.38;5.60;;;;;;;18.41;81.05;101626.59;5114256;28;20023;-36
2021/08/18 09:38:03;;;;;;;3.55;3.20;;;;;;;18.46;78.40;101618.41;5114053;28;20042;-36
2021/08/18 09:40:32;;;;;;;4.05;2.15;;;;;;;18.35;76.93;101605.72;5113828;28;20020;-36
2021/08/18 09:43:25;;;;;;;2.45;1.92;;;;;;;18.52;78.49;101609.13;5113325;28;20474;-36
2021/08/18 09:45:59;;;;;;;2.78;1.90;;;;;;;18.65;78.45;101610.56;5113740;28;20367;-36
2021/08/18 09:48:26;;;;;;;3.00;1.95;;;;;;;18.65;76.78;101607.81;5113915;28;20024;-36
2021/08/18 09:50:51;;;;;;;2.30;2.10;;;;;;;18.69;75.60;101607.06;5113437;28;20035;-36
2021/08/18 09:53:36;;;;;;;;;;;;;;;18.89;79.37;101613.72;5113915;28;20032;-36
2021/08/18 09:56:03;;;;;;;3.90;3.00;;;;;;;18.74;77.27;101609.00;5113184;28;19960;-36
2021/08/18 09:58:33;;;;;;;3.88;3.47;;;;;;;18.71;77.79;101604.03;5113007;28;20028;-36
2021/08/18 10:01:08;;;;;;;5.20;3.13;;;;;;;18.53;78.62;101586.09;5114203;28;20024;-36
2021/08/18 10:03:34;;;;;;;5.07;4.07;;;;;;;18.64;78.07;101607.00;5113062;28;20023;-37
2021/08/18 10:05:59;;;;;;;;;;;;;;;18.82;80.03;101607.66;5113477;28;20027;-36
2021/08/18 10:08:25;;;;;;;6.72;6.05;;;;;;;18.59;77.40;101584.22;5113402;28;19907;-36
2021/08/18 10:10:50;;;;;;;;;;;;;;;18.81;79.02;101604.09;5113690;28;20020;-36
2021/08/18 10:13:17;;;;;;;7.10;6.40;;;;;;;18.57;78.43;101595.44;5113014;28;19907;-36
2021/08/18 10:15:43;;;;;;;9.55;6.78;;;;;;;18.51;80.37;101588.31;5113297;28;20098;-36
2021/08/18 10:18:09;;;;;;;;;;;;;;;18.61;80.14;101588.34;5113645;28;20111;-36
2021/08/18 10:20:36;;;;;;;8.10;7.30;;;;;;;18.42;80.83;101585.25;5113718;28;20322;-36
2021/08/18 10:23:08;;;;;;;9.55;7.13;;;;;;;18.29;80.37;101585.69;5113438;28;20096;-36
2021/08/18 10:25:35;;;;;;;10.80;7.10;;;;;;;18.32;80.33;101592.56;5113334;28;20414;-36
2021/08/18 10:28:02;;;;;;;8.88;7.57;;;;;;;18.31;80.22;101586.28;5116096;28;20028;-36
2021/08/18 10:30:28;;;;;;;8.35;7.53;;;;;;;18.32;81.01;101592.56;5116916;28;20099;-36
2021/08/18 10:32:53;;;;;;;;;;;;;;;18.42;81.37;101590.72;5116722;28;20078;-36
2021/08/18 10:35:34;;;;;;;9.65;8.00;;;;;;;18.17;83.51;101591.38;5117092;28;19908;-36
2021/08/18 10:38:23;;;;;;;12.00;10.00;;;;;;;18.12;84.71;101596.81;5116861;28;20023;-36
2021/08/18 10:40:49;;;;;;;13.90;9.95;;;;;;;18.01;86.02;101585.00;5116935;28;20019;-36
2021/08/18 10:43:58;;;;;;;;;;;;;;;18.13;84.35;101592.19;5117665;28;20022;-36
2021/08/18 10:46:24;;;;;;;12.68;10.20;;;;;;;17.86;86.63;101598.56;5054045;28;19915;-36
2021/08/18 10:48:55;;;;;;;;;;;;;;;17.93;85.21;101603.78;5053705;28;20033;-36
2021/08/18 10:51:38;;;;;;;12.48;10.63;;;;;;;17.69;87.94;101595.09;5053762;28;19962;-36
2021/08/18 10:54:28;;;;;;;12.95;11.65;;;;;;;17.60;89.45;101602.94;5053315;28;20059;-36
2021/08/18 10:56:58;;;;;;;11.88;10.57;;;;;;;17.65;89.33;101594.78;5053755;28;20037;-36
2021/08/18 10:59:35;;;;;;;11.90;10.70;;;;;;;17.58;88.71;101590.63;5053064;28;20056;-36
2021/08/18 11:02:07;;;;;;;11.00;9.80;;;;;;;17.61;87.76;101596.38;5053119;28;20029;-36
2021/08/18 11:04:45;;;;;;;14.00;11.13;;;;;;;17.49;88.16;101576.59;5053757;28;20087;-36
2021/08/18 11:07:12;;;;;;;10.77;9.68;;;;;;;17.56;87.21;101593.59;5053369;28;20040;-36
2021/08/18 11:10:00;;;;;;;10.98;9.63;;;;;;;17.55;87.82;101596.59;5053029;28;20112;-36
2021/08/18 11:12:41;;;;;;;11.68;9.45;;;;;;;17.50;87.78;101595.47;4955600;29;20375;-36
2021/08/18 11:15:14;;;;;;;11.30;9.55;;;;;;;17.53;88.40;101594.13;4955384;29;20352;-36
2021/08/18 11:17:42;;;;;;;10.82;9.55;;;;;;;17.55;88.97;101593.84;4999401;28;20030;-36
2021/08/18 11:20:11;;;;;;;11.00;9.77;;;;;;;17.57;88.21;101583.47;5013241;28;20426;-36
2021/08/18 11:22:36;;;;;;;11.02;9.80;;;;;;;17.57;88.87;101576.13;5013380;28;20118;-36